createdAt,value
2019-04-14T00:01:09.417Z,8.27
2019-04-14T00:03:58.658Z,7.83
2019-04-14T00:06:31.389Z,7.60
2019-04-14T00:09:03.229Z,7.40
2019-04-14T00:11:41.438Z,7.40
2019-04-14T00:14:14.079Z,7.10
2019-04-14T00:16:46.777Z,8.00
2019-04-14T00:19:19.551Z,7.70
2019-04-14T00:21:52.257Z,7.30
2019-04-14T00:24:24.831Z,8.23
2019-04-14T00:26:57.331Z,8.43
2019-04-14T00:29:28.749Z,8.67
2019-04-14T00:32:00.890Z,8.77
2019-04-14T00:34:50.808Z,8.53
2019-04-14T00:37:42.303Z,8.87
2019-04-14T00:40:29.289Z,8.03
2019-04-14T00:43:28.736Z,8.53
2019-04-14T00:46:05.877Z,9.30
2019-04-14T00:48:38.658Z,8.37
2019-04-14T00:51:11.268Z,9.30
2019-04-14T00:53:42.576Z,8.87
2019-04-14T00:56:14.990Z,9.20
2019-04-14T00:58:47.543Z,9.80
2019-04-14T01:01:19.722Z,9.37
2019-04-14T01:03:52.556Z,9.63
2019-04-14T01:06:27.290Z,9.27
2019-04-14T01:08:58.531Z,9.47
2019-04-14T01:11:29.795Z,9.00
2019-04-14T01:14:01.610Z,10.23
2019-04-14T01:16:34.004Z,9.83
2019-04-14T01:19:06.807Z,9.57
2019-04-14T01:21:39.214Z,10.50
2019-04-14T01:24:12.082Z,10.23
2019-04-14T01:26:44.226Z,9.53
2019-04-14T01:29:16.595Z,9.80
2019-04-14T01:31:49.258Z,10.90
2019-04-14T01:34:21.665Z,11.97
2019-04-14T01:36:54.333Z,12.07
2019-04-14T01:39:26.514Z,11.97
2019-04-14T01:41:58.535Z,11.80
2019-04-14T01:44:30.713Z,12.23
2019-04-14T01:47:03.098Z,11.43
2019-04-14T01:49:35.442Z,12.47
2019-04-14T01:52:25.287Z,13.93
2019-04-14T01:55:18.265Z,13.03
2019-04-14T01:58:03.009Z,12.43
2019-04-14T02:00:53.885Z,14.07
2019-04-14T02:03:28.103Z,13.30
2019-04-14T02:06:00.364Z,13.60
2019-04-14T02:08:32.936Z,12.40
2019-04-14T02:11:05.229Z,13.70
2019-04-14T02:13:37.573Z,12.83
2019-04-14T02:16:18.490Z,13.30
2019-04-14T02:18:42.894Z,12.63
2019-04-14T02:21:14.946Z,13.33
2019-04-14T02:23:47.443Z,12.37
2019-04-14T02:26:22.011Z,12.73
2019-04-14T02:28:55.400Z,12.73
2019-04-14T02:31:56.997Z,13.37
2019-04-14T02:34:34.699Z,13.70
2019-04-14T02:37:04.792Z,13.83
2019-04-14T02:42:20.762Z,14.97
2019-04-14T02:47:38.535Z,15.07
2019-04-14T02:49:50.703Z,14.47
2019-04-14T02:52:31.788Z,14.67
2019-04-14T02:57:33.907Z,14.13
2019-04-14T03:05:09.442Z,14.70
2019-04-14T03:07:45.759Z,14.90
2019-04-14T03:10:20.367Z,15.47
2019-04-14T03:15:25.353Z,15.83
2019-04-14T03:18:31.766Z,17.43
2019-04-14T03:21:15.475Z,17.47
2019-04-14T03:24:07.156Z,18.00
2019-04-14T03:26:51.708Z,17.50
2019-04-14T03:29:31.745Z,17.37
2019-04-14T03:39:40.588Z,16.70
2019-04-14T03:42:10.821Z,16.97
2019-04-14T03:44:44.993Z,17.17
2019-04-14T03:49:45.153Z,16.23
2019-04-14T03:52:22.249Z,17.70
2019-04-14T03:54:52.722Z,16.47
2019-04-14T03:57:04.047Z,16.87
2019-04-14T03:59:36.664Z,16.73
2019-04-14T04:02:08.083Z,17.50
2019-04-14T04:04:40.184Z,16.63
2019-04-14T04:07:12.486Z,17.70
2019-04-14T04:09:54.068Z,19.00
2019-04-14T04:12:25.544Z,18.97
2019-04-14T04:14:57.491Z,20.60
2019-04-14T04:17:47.314Z,20.73
2019-04-14T04:20:37.097Z,19.23
2019-04-14T04:23:33.499Z,18.77
2019-04-14T04:26:23.324Z,20.03
2019-04-14T04:29:20.963Z,19.17
2019-04-14T04:32:12.201Z,19.20
2019-04-14T04:35:04.375Z,17.93
2019-04-14T04:38:07.318Z,18.57
2019-04-14T04:40:39.715Z,18.23
2019-04-14T04:43:12.573Z,19.27
2019-04-14T04:45:45.155Z,19.47
2019-04-14T04:48:17.784Z,19.67
2019-04-14T04:50:49.921Z,18.87
2019-04-14T04:53:22.365Z,19.60
2019-04-14T04:55:54.925Z,18.93
2019-04-14T04:58:26.322Z,20.27
2019-04-14T05:00:59.466Z,19.67
2019-04-14T05:03:31.740Z,21.20
2019-04-14T05:06:46.825Z,22.10
2019-04-14T05:09:25.293Z,21.00
2019-04-14T05:12:19.853Z,20.70
2019-04-14T05:15:01.112Z,20.23
2019-04-14T05:17:34.238Z,20.40
2019-04-14T05:20:07.276Z,19.87
2019-04-14T05:22:40.128Z,19.97
2019-04-14T05:25:12.463Z,19.83
2019-04-14T05:27:45.179Z,19.27
2019-04-14T05:30:17.586Z,20.13
2019-04-14T05:32:50.138Z,19.70
2019-04-14T05:35:22.645Z,19.67
2019-04-14T05:37:55.092Z,20.83
2019-04-14T05:40:27.755Z,20.87
2019-04-14T05:43:00.261Z,21.23
2019-04-14T05:45:32.662Z,23.00
2019-04-14T05:48:07.559Z,22.67
2019-04-14T05:50:40.072Z,23.43
2019-04-14T05:53:13.143Z,23.10
2019-04-14T05:55:45.937Z,22.83
2019-04-14T05:58:18.565Z,22.70
2019-04-14T06:00:51.755Z,22.60
2019-04-14T06:03:23.532Z,22.10
2019-04-14T06:05:54.766Z,21.57
2019-04-14T06:08:26.486Z,22.93
2019-04-14T06:10:57.966Z,22.67
2019-04-14T06:13:30.929Z,22.13
2019-04-14T06:16:03.700Z,22.13
2019-04-14T06:18:35.599Z,20.90
2019-04-14T06:21:07.096Z,21.77
2019-04-14T06:23:38.996Z,21.63
2019-04-14T06:26:10.811Z,21.43
2019-04-14T06:28:42.384Z,21.03
2019-04-14T06:31:31.344Z,21.73
2019-04-14T06:34:22.540Z,21.87
2019-04-14T06:37:04.198Z,20.70
2019-04-14T06:39:39.211Z,21.30
2019-04-14T06:42:10.976Z,21.67
2019-04-14T06:44:42.714Z,22.07
2019-04-14T06:47:14.328Z,22.57
2019-04-14T06:49:49.252Z,21.20
2019-04-14T06:52:19.358Z,21.50
2019-04-14T06:54:51.135Z,21.73
2019-04-14T06:57:22.795Z,22.03
2019-04-14T06:59:54.071Z,21.90
2019-04-14T07:02:26.502Z,22.50
2019-04-14T07:04:58.830Z,22.23
2019-04-14T07:07:30.259Z,21.57
2019-04-14T07:10:01.658Z,21.73
2019-04-14T07:12:33.017Z,21.67
2019-04-14T07:15:05.547Z,22.10
2019-04-14T07:17:37.284Z,23.23
2019-04-14T07:20:08.974Z,21.47
2019-04-14T07:22:40.479Z,22.93
2019-04-14T07:25:11.766Z,21.97
2019-04-14T07:27:43.975Z,22.23
2019-04-14T07:30:33.196Z,22.03
2019-04-14T07:33:11.759Z,21.87
2019-04-14T07:36:01.582Z,21.37
2019-04-14T07:38:38.252Z,21.87
2019-04-14T07:41:14.592Z,20.47
2019-04-14T07:43:53.142Z,22.37
2019-04-14T07:46:47.226Z,21.53
2019-04-14T07:49:36.574Z,20.93
2019-04-14T07:52:26.103Z,20.77
2019-04-14T07:55:05.515Z,20.07
2019-04-14T07:58:14.414Z,19.93
2019-04-14T08:00:50.815Z,20.13
2019-04-14T08:03:34.411Z,22.83
2019-04-14T08:06:06.107Z,21.37
2019-04-14T08:08:37.832Z,20.93
2019-04-14T08:11:09.339Z,22.80
2019-04-14T08:13:40.717Z,21.77
2019-04-14T08:16:13.479Z,21.90
2019-04-14T08:18:44.869Z,23.43
2019-04-14T08:21:16.357Z,22.37
2019-04-14T08:23:48.111Z,23.93
2019-04-14T08:26:19.919Z,23.87
2019-04-14T08:28:52.512Z,23.63
2019-04-14T08:31:24.698Z,24.47
2019-04-14T08:33:56.533Z,26.00
2019-04-14T08:36:28.368Z,27.70
2019-04-14T08:39:00.557Z,27.30
2019-04-14T08:41:39.879Z,25.97
2019-04-14T08:44:23.567Z,28.77
2019-04-14T08:47:13.480Z,27.03
2019-04-14T08:49:51.205Z,24.47
2019-04-14T08:52:29.742Z,25.13
2019-04-14T08:55:09.103Z,25.23
2019-04-14T08:58:04.070Z,25.57
2019-04-14T09:00:41.609Z,25.20
2019-04-14T09:03:28.861Z,24.33
2019-04-14T09:06:12.880Z,25.10
2019-04-14T09:09:02.388Z,27.70
2019-04-14T09:11:39.841Z,27.03
2019-04-14T09:14:11.601Z,26.07
2019-04-14T09:16:43.014Z,25.87
2019-04-14T09:19:14.767Z,26.70
2019-04-14T09:21:46.532Z,26.50
2019-04-14T09:24:18.142Z,27.47
2019-04-14T09:26:50.720Z,26.40
2019-04-14T09:29:22.076Z,27.17
2019-04-14T09:31:53.750Z,26.33
2019-04-14T09:34:26.925Z,30.27
2019-04-14T09:36:59.038Z,30.70
2019-04-14T09:39:31.457Z,32.07
2019-04-14T09:42:03.616Z,32.50
2019-04-14T09:44:35.319Z,31.00
2019-04-14T09:47:06.756Z,31.87
2019-04-14T09:49:38.196Z,31.80
2019-04-14T09:52:09.895Z,32.13
2019-04-14T09:54:41.451Z,32.20
2019-04-14T09:57:15.009Z,33.50
2019-04-14T09:59:47.653Z,31.07
2019-04-14T10:02:19.224Z,32.10
2019-04-14T10:04:50.601Z,30.27
2019-04-14T10:07:21.899Z,30.53
2019-04-14T10:09:53.346Z,31.37
2019-04-14T10:12:24.773Z,30.50
2019-04-14T10:14:57.005Z,29.13
2019-04-14T10:17:28.511Z,29.97
2019-04-14T10:20:01.349Z,30.23
2019-04-14T10:22:34.250Z,28.93
2019-04-14T10:25:06.725Z,29.63
2019-04-14T10:27:38.309Z,29.70
2019-04-14T10:30:11.363Z,31.20
2019-04-14T10:32:42.856Z,29.80
2019-04-14T10:35:14.363Z,29.97
2019-04-14T10:37:46.107Z,30.10
2019-04-14T10:40:17.647Z,29.37
2019-04-14T10:42:49.360Z,32.20
2019-04-14T10:45:20.773Z,34.87
2019-04-14T10:47:52.393Z,34.17
2019-04-14T10:50:30.794Z,29.43
2019-04-14T10:52:57.731Z,27.70
2019-04-14T10:55:30.019Z,27.93
2019-04-14T10:58:01.629Z,25.20
2019-04-14T11:00:34.898Z,25.43
2019-04-14T11:03:06.548Z,23.93
2019-04-14T11:05:49.213Z,23.33
2019-04-14T11:08:20.634Z,23.70
2019-04-14T11:10:53.090Z,24.13
2019-04-14T11:13:24.678Z,22.30
2019-04-14T11:15:56.078Z,22.67
2019-04-14T11:18:27.556Z,21.53
2019-04-14T11:20:58.917Z,22.07
2019-04-14T11:23:30.322Z,21.83
2019-04-14T11:26:01.668Z,22.07
2019-04-14T11:28:33.180Z,21.83
2019-04-14T11:31:04.536Z,21.63
2019-04-14T11:33:53.768Z,22.10
2019-04-14T11:36:39.533Z,21.77
2019-04-14T11:39:13.118Z,21.13
2019-04-14T11:41:45.082Z,21.57
2019-04-14T11:44:17.365Z,20.83
2019-04-14T11:46:48.780Z,20.33
2019-04-14T11:49:20.198Z,21.47
2019-04-14T11:51:55.453Z,21.27
2019-04-14T11:54:24.758Z,20.87
2019-04-14T11:56:56.171Z,20.80
2019-04-14T11:59:38.069Z,20.33
2019-04-14T12:02:19.682Z,22.10
2019-04-14T12:04:58.019Z,20.83
2019-04-14T12:07:48.332Z,20.47
2019-04-14T12:10:23.719Z,19.90
2019-04-14T12:12:56.081Z,20.27
2019-04-14T12:15:28.720Z,19.80
2019-04-14T12:18:02.121Z,19.97
2019-04-14T12:20:33.415Z,19.87
2019-04-14T12:23:04.815Z,21.07
2019-04-14T12:25:36.209Z,19.87
2019-04-14T12:28:08.977Z,20.37
2019-04-14T12:30:41.953Z,20.17
2019-04-14T12:33:14.966Z,19.40
2019-04-14T12:35:46.990Z,20.93
2019-04-14T12:38:18.893Z,20.73
2019-04-14T12:40:50.759Z,20.60
2019-04-14T12:43:36.494Z,19.90
2019-04-14T12:46:27.281Z,19.73
2019-04-14T12:49:07.043Z,19.50
2019-04-14T12:51:42.237Z,20.53
2019-04-14T12:54:14.037Z,21.10
2019-04-14T12:56:46.015Z,21.47
2019-04-14T12:59:23.132Z,20.60
2019-04-14T13:02:11.465Z,20.13
2019-04-14T13:04:43.006Z,19.50
2019-04-14T13:07:14.274Z,20.40
2019-04-14T13:09:45.947Z,20.20
2019-04-14T13:12:17.281Z,20.53
2019-04-14T13:14:48.619Z,20.73
2019-04-14T13:17:19.895Z,20.93
2019-04-14T13:19:52.001Z,20.90
2019-04-14T13:22:33.214Z,21.20
2019-04-14T13:24:57.125Z,20.87
2019-04-14T13:27:28.708Z,21.63
2019-04-14T13:30:00.482Z,20.97
2019-04-14T13:32:36.200Z,20.53
2019-04-14T13:35:06.332Z,21.07
2019-04-14T13:37:37.896Z,21.77
2019-04-14T13:40:10.286Z,20.67
2019-04-14T13:42:41.982Z,20.50
2019-04-14T13:45:14.705Z,19.70
2019-04-14T13:47:46.196Z,20.37
2019-04-14T13:50:18.978Z,19.80
2019-04-14T13:52:50.494Z,21.47
2019-04-14T13:55:21.894Z,20.83
2019-04-14T13:57:53.294Z,20.63
2019-04-14T14:00:25.184Z,20.67
2019-04-14T14:02:57.339Z,20.60
2019-04-14T14:05:29.042Z,20.17
2019-04-14T14:08:00.775Z,20.53
2019-04-14T14:10:32.818Z,20.80
2019-04-14T14:13:13.744Z,20.93
2019-04-14T14:16:04.169Z,20.13
2019-04-14T14:18:50.170Z,21.17
2019-04-14T14:21:40.314Z,21.67
2019-04-14T14:24:30.648Z,21.37
2019-04-14T14:27:02.327Z,21.07
2019-04-14T14:29:33.810Z,20.40
2019-04-14T14:32:08.436Z,20.83
2019-04-14T14:34:39.819Z,20.87
2019-04-14T14:37:11.378Z,21.70
2019-04-14T14:39:42.843Z,22.37
2019-04-14T14:42:14.133Z,21.57
2019-04-14T14:44:50.990Z,21.13
2019-04-14T14:47:27.490Z,21.13
2019-04-14T14:50:23.959Z,21.33
2019-04-14T14:52:55.606Z,20.33
2019-04-14T14:55:27.038Z,21.37
2019-04-14T14:57:58.697Z,21.30
2019-04-14T15:00:36.338Z,19.40
2019-04-14T15:03:08.470Z,20.37
2019-04-14T15:05:40.053Z,19.00
2019-04-14T15:08:11.302Z,18.97
2019-04-14T15:10:42.717Z,18.77
2019-04-14T15:13:14.342Z,18.13
2019-04-14T15:15:45.932Z,18.47
2019-04-14T15:18:17.419Z,18.77
2019-04-14T15:20:50.437Z,19.27
2019-04-14T15:23:25.221Z,18.37
2019-04-14T15:25:56.741Z,18.93
2019-04-14T15:28:28.265Z,19.00
2019-04-14T15:31:00.091Z,17.83
2019-04-14T15:33:31.404Z,17.97
2019-04-14T15:36:02.722Z,18.47
2019-04-14T15:38:35.957Z,18.17
2019-04-14T15:41:08.601Z,17.37
2019-04-14T15:43:40.114Z,17.17
2019-04-14T15:46:12.121Z,17.60
2019-04-14T15:48:44.595Z,17.90
2019-04-14T15:51:16.581Z,17.50
2019-04-14T15:53:48.053Z,16.90
2019-04-14T15:56:41.832Z,16.83
2019-04-14T15:59:23.809Z,17.33
2019-04-14T16:02:20.503Z,17.13
2019-04-14T16:04:58.484Z,17.30
2019-04-14T16:08:07.338Z,18.03
2019-04-14T16:10:52.583Z,16.77
2019-04-14T16:13:33.200Z,17.20
2019-04-14T16:16:21.125Z,16.43
2019-04-14T16:19:04.104Z,16.83
2019-04-14T16:21:35.584Z,16.80
2019-04-14T16:24:07.719Z,16.43
2019-04-14T16:26:48.684Z,15.90
2019-04-14T16:29:39.306Z,15.30
2019-04-14T16:32:28.888Z,15.50
2019-04-14T16:35:09.108Z,15.07
2019-04-14T16:37:41.390Z,15.70
2019-04-14T16:40:12.908Z,16.43
2019-04-14T16:42:44.312Z,16.00
2019-04-14T16:45:15.879Z,15.00
2019-04-14T16:47:49.002Z,14.77
2019-04-14T16:50:20.700Z,20.83
2019-04-14T16:52:57.828Z,15.80
2019-04-14T16:55:46.036Z,15.23
2019-04-14T16:58:34.203Z,14.70
2019-04-14T17:01:08.735Z,13.77
2019-04-14T17:03:41.821Z,14.20
2019-04-14T17:06:14.473Z,13.90
2019-04-14T17:08:46.305Z,13.67
2019-04-14T17:11:18.718Z,13.90
2019-04-14T17:14:04.449Z,14.17
2019-04-14T17:17:07.075Z,14.47
2019-04-14T17:19:45.591Z,14.27
2019-04-14T17:22:27.594Z,14.00
2019-04-14T17:25:24.561Z,13.53
2019-04-14T17:28:08.143Z,13.90
2019-04-14T17:31:11.179Z,13.50
2019-04-14T17:33:52.319Z,12.67
2019-04-14T17:36:37.719Z,13.77
2019-04-14T17:39:25.125Z,12.70
2019-04-14T17:42:02.939Z,13.77
2019-04-14T17:44:53.149Z,13.50
2019-04-14T17:47:44.125Z,14.20
2019-04-14T17:50:41.370Z,12.77
2019-04-14T17:53:18.471Z,13.50
2019-04-14T17:56:05.625Z,13.37
2019-04-14T17:59:07.981Z,12.40
2019-04-14T18:01:58.493Z,12.43
2019-04-14T18:04:37.883Z,13.30
2019-04-14T18:07:17.159Z,15.90
2019-04-14T18:10:00.996Z,14.27
2019-04-14T18:12:57.787Z,13.50
2019-04-14T18:15:42.347Z,13.27
2019-04-14T18:18:23.749Z,13.20
2019-04-14T18:20:58.108Z,12.00
2019-04-14T18:23:29.525Z,13.13
2019-04-14T18:26:02.178Z,12.17
2019-04-14T18:29:01.829Z,12.30
2019-04-14T18:31:55.076Z,11.97
2019-04-14T18:34:57.665Z,12.13
2019-04-14T18:37:48.363Z,11.70
2019-04-14T18:40:43.440Z,12.30
2019-04-14T18:43:37.312Z,11.80
2019-04-14T18:46:26.257Z,11.13
2019-04-14T18:49:08.971Z,11.83
2019-04-14T18:52:01.882Z,11.63
2019-04-14T18:55:01.793Z,12.30
2019-04-14T18:57:45.652Z,11.43
2019-04-14T19:00:24.667Z,11.87
2019-04-14T19:02:56.035Z,11.67
2019-04-14T19:05:27.879Z,11.00
2019-04-14T19:08:00.001Z,11.33
2019-04-14T19:10:31.883Z,11.27
2019-04-14T19:13:09.451Z,11.23
2019-04-14T19:15:56.288Z,10.80
2019-04-14T19:18:38.764Z,10.70
2019-04-14T19:21:14.008Z,10.43
2019-04-14T19:23:46.701Z,11.00
2019-04-14T19:26:19.794Z,10.40
2019-04-14T19:28:51.579Z,10.30
2019-04-14T19:31:23.118Z,10.43
2019-04-14T19:33:54.505Z,10.10
2019-04-14T19:36:27.667Z,9.77
2019-04-14T19:39:00.131Z,10.40
2019-04-14T19:41:37.054Z,9.90
2019-04-14T19:44:08.672Z,9.87
2019-04-14T19:46:40.749Z,9.73
2019-04-14T19:49:12.042Z,10.23
2019-04-14T19:51:43.786Z,10.40
2019-04-14T19:54:15.184Z,9.90
2019-04-14T19:56:47.777Z,9.67
2019-04-14T19:59:19.193Z,9.60
2019-04-14T20:01:52.301Z,10.17
2019-04-14T20:04:24.060Z,9.60
2019-04-14T20:06:55.397Z,10.03
2019-04-14T20:09:26.803Z,9.97
2019-04-14T20:11:59.212Z,9.53
2019-04-14T20:14:30.559Z,9.70
2019-04-14T20:17:20.278Z,10.53
2019-04-14T20:20:17.011Z,9.93
2019-04-14T20:23:08.093Z,10.17
2019-04-14T20:25:47.057Z,9.43
2019-04-14T20:28:28.469Z,9.30
2019-04-14T20:31:35.347Z,10.40
2019-04-14T20:34:08.327Z,10.00
2019-04-14T20:36:39.961Z,9.23
2019-04-14T20:39:15.033Z,9.53
2019-04-14T20:41:47.312Z,9.87
2019-04-14T20:44:18.925Z,10.10
2019-04-14T20:46:50.579Z,9.40
2019-04-14T20:49:21.942Z,10.20
2019-04-14T20:51:54.358Z,10.10
2019-04-14T20:54:27.918Z,10.83
2019-04-14T20:56:59.212Z,10.33
2019-04-14T20:59:33.275Z,9.93
2019-04-14T21:02:39.998Z,10.13
2019-04-14T21:05:36.150Z,9.63
2019-04-14T21:08:22.801Z,10.07
2019-04-14T21:10:57.897Z,9.77
2019-04-14T21:14:00.147Z,9.47
2019-04-14T21:16:44.900Z,10.33
2019-04-14T21:19:20.059Z,10.07
2019-04-14T21:22:08.448Z,9.50
2019-04-14T21:24:49.520Z,10.10
2019-04-14T21:27:39.972Z,10.00
2019-04-14T21:30:18.819Z,9.40
2019-04-14T21:33:13.422Z,9.43
2019-04-14T21:36:09.920Z,9.97
2019-04-14T21:39:12.575Z,9.87
2019-04-14T21:41:45.021Z,10.43
2019-04-14T21:44:16.696Z,9.50
2019-04-14T21:46:48.144Z,10.60
2019-04-14T21:49:19.672Z,10.53
2019-04-14T21:52:13.218Z,10.50
2019-04-14T21:54:45.738Z,9.73
2019-04-14T21:57:38.770Z,10.37
2019-04-14T22:00:43.604Z,10.77
2019-04-14T22:03:41.006Z,9.73
2019-04-14T22:06:16.690Z,10.07
2019-04-14T22:08:52.506Z,10.10
2019-04-14T22:11:25.486Z,10.73
2019-04-14T22:13:57.595Z,10.63
2019-04-14T22:16:30.673Z,11.10
2019-04-14T22:19:03.507Z,10.57
2019-04-14T22:21:35.259Z,10.17
2019-04-14T22:24:09.570Z,10.93
2019-04-14T22:26:42.887Z,10.37
2019-04-14T22:29:15.864Z,10.90
2019-04-14T22:31:49.156Z,10.30
2019-04-14T22:34:22.105Z,10.10
2019-04-14T22:36:55.047Z,10.90
2019-04-14T22:39:29.109Z,10.93
2019-04-14T22:42:02.521Z,11.13
2019-04-14T22:44:35.861Z,11.70
2019-04-14T22:47:10.154Z,11.00
2019-04-14T22:49:42.771Z,11.30
2019-04-14T22:52:15.381Z,11.23
2019-04-14T22:54:47.757Z,10.63
2019-04-14T22:57:20.109Z,11.37
2019-04-14T22:59:51.339Z,11.27
2019-04-14T23:02:42.061Z,11.17
2019-04-14T23:05:24.219Z,10.97
2019-04-14T23:08:18.803Z,11.17
2019-04-14T23:11:14.909Z,11.90
2019-04-14T23:14:08.104Z,11.00
2019-04-14T23:16:57.283Z,11.00
2019-04-14T23:19:36.710Z,11.27
2019-04-14T23:22:29.101Z,11.80
2019-04-14T23:25:01.069Z,10.97
2019-04-14T23:27:32.813Z,11.03
2019-04-14T23:30:05.123Z,11.53
2019-04-14T23:32:36.473Z,11.30
2019-04-14T23:35:08.157Z,11.40
2019-04-14T23:37:39.563Z,11.10
2019-04-14T23:40:11.569Z,11.33
2019-04-14T23:42:43.184Z,11.67
2019-04-14T23:45:14.584Z,11.00
2019-04-14T23:47:45.963Z,11.37
2019-04-14T23:50:18.472Z,11.30
2019-04-14T23:52:49.785Z,11.43
2019-04-14T23:55:21.220Z,11.17
2019-04-14T23:57:53.176Z,10.97
